Cancún, México

8:07 PM EDT en Junio 26, 2017 (GMT -0400)
Paseo del mar Residencial Campestre Cancun | | Change Station

Alt 26 ft 21.10 °N, 86.85 °W | Updated 8 seconds ago

Muy nublado
Muy nublado
86.9 ° F
Sensación térmica 108 ° F
N
3.6
Viento Variable Viento desde NNE
Gusts 4.9 mph

Hoy
Alta -- | Baja -- ° F
--% Posibilidad de precipitaciones
Ayer
Alta -- | Baja -- ° F
Precip. -- pul
Presión 29.96 pul
Visibilidad 8.0 Millas
Nubes Nubes dispersas 1500 ft
Nubes dispersas 25000 ft
Índice de calor 108 ° F
Punto de rocío 83 ° F
Humedad 89%
Precipitaciones 0.11 pul
Espesor de la nieve No disponible.
7:08 AM 8:32 PM
Creciente, 12% visible
METAR MMCZ 262349Z 11005KT 8SM SCT015 SCT250 29/25 A2994 RMK SLP144 57001 954 8/508 VC TCU
Presión 29.96 pul
Visibilidad 8.0 Millas
Nubes Nubes dispersas 1500 ft
Nubes dispersas 25000 ft
Índice de calor 108 ° F
Punto de rocío 83 ° F
Humedad 89%
Precipitaciones 0.11 pul
Espesor de la nieve No disponible.
7:08 AM 8:32 PM
Creciente, 12% visible
METAR MMCZ 262349Z 11005KT 8SM SCT015 SCT250 29/25 A2994 RMK SLP144 57001 954 8/508 VC TCU

Get Severe Weather Alerts

Thanks for signing up!

Be on the lookout for a verification email in your inbox.

You'll start receiving the daily forecast at 6 AM.

×

10-Day Weather Forecast

No radar image for this location.
×

Almanac

Astronomía

Jun. 26, 2017 Salida Puesta
Hora real
Crepúsculo civil
Crepúsculo náutico
Crepúsculo astronómico
Luna
Horas de luz
Horas de luz
Tomorrow will be .
, % of the Moon is Illuminated

Extremos de hoy

Máximos del país Bajas del país

Community

WunderPhotos

Category 6

Welcome to Category 6. This is the collective home for Weather Underground's featured writeups by Dr. Jeff Masters (right), Bob Henson (left), Chris Burt, and other regular contributors.

Nearby

Calidad del aire

  Calidad del aire Índice AQ Contaminante
Not available.

Grosos de nieve

Estación Profundido Altura

Actividad de terremotos

Ciudad Distance Mag. Tiempo y dato
Magnitud mínima muestra es 2,5.

Temperaturas de aguas costeras

Lugar Temperatura

Stations

Estaciones meteorológicas cercanas

Ubicación de la estación Temp. Vientos helados Punto de rocío Humedad Viento Precip. Alt Actualizado Tipo